Terminal Aerodrome Forecast
Issued by NWS

Home | Current Version | Previous Version | Text Only | Print | Product List | Glossary On
Versions: 1 2 3 4 5 6 7 8 9 10 11 12 13 14
000
FTUS44 KJAN 212300
TAFGTR
TAF
KGTR 212320Z 2200/2224 12004KT P6SM BKN025
     FM220500 15006KT P6SM OVC015
     FM220700 15007KT P6SM OVC007
     FM220900 15005KT 4SM BR OVC003
     FM221100 15005KT 2SM BR OVC003
     FM221400 15008KT 4SM BR OVC003
     FM221600 16011KT P6SM OVC007
     FM221800 16012G18KT P6SM OVC012=

USA.gov is the U.S. government's official web portal to all federal, state and local government web resources and services.